Slide Mountain Weather observations

Data are for 10 minute period ending at time listed.
 Day   Time   Solar   Ave.   Ave.  Ave.  Vector  Max.    Baro.  
  of    of     Rad.   Air    Rel.  Wind   Wind   Wind   Press.  
Year   Day            Temp.  Hum.  Speed  Dir.   Gust           
2026   (PST)  Kw/m2    F      %     mph   deg.    mph     mb.   
-----------------------------------------------------------------
 127    4:40   0.00   42.5    64   17.3   264     21.3    717.1 
 127    4:50   0.00   42.2    64   17.3   268     24.0    717.1 
 127    5:00   0.01   42.5    63   20.9   261     25.6    717.0 
 127    5:10   0.01   42.9    60   23.8   256     27.5    716.9 
 127    5:20   0.03   43.6    57   25.3   250     28.1    716.9 
 127    5:30   0.05   43.7    54   26.6   248     31.6    716.9 
 127    5:40   0.08   44.2    52   29.5   244     34.5    716.8 
 127    5:50   0.12   44.0    50   28.9   245     34.5    716.9 
 127    6:00   0.14   43.9    49   28.9   243     33.7    717.0 
 127    6:10   0.17   43.9    48   28.1   244     33.0    717.0 
 127    6:20   0.20   44.0    49   29.0   245     33.2    717.0 
 127    6:30   0.23   44.2    49   25.9   246     30.0    717.1 
 127    6:40   0.26   44.4    49   27.1   246     35.1    717.1 
 127    6:50   0.29   44.6    48   24.7   245     30.0    717.2 
 127    7:00   0.32   45.0    47   22.0   245     28.6    717.3 
 127    7:10   0.35   45.4    46   21.6   248     26.8    717.3 
 127    7:20   0.38   45.7    44   21.3   243     28.7    717.3 
 127    7:30   0.40   45.9    43   22.9   242     28.6    717.4 
 127    7:40   0.43   46.1    41   20.0   239     26.8    717.5 
 127    7:50   0.46   46.3    39   22.0   242     28.5    717.5 
 127    8:00   0.49   46.4    39   21.6   243     28.0    717.5 
 127    8:10   0.52   46.4    37   21.2   244     27.2    717.5 
 127    8:20   0.54   46.5    36   21.8   245     29.7    717.5 
 127    8:30   0.57   46.8    35   19.3   244     25.8    717.5 
 127    8:40   0.59   47.0    34   17.4   244     24.7    717.6 
 127    8:50   0.62   47.6    33   15.7   245     23.8    717.7 
 127    9:00   0.64   48.1    33   13.4   243     23.2    717.7 
 127    9:10   0.67   48.0    32   15.2   241     22.4    717.7 
 127    9:20   0.69   48.5    30   13.6   238     20.2    717.7 
 127    9:30   0.71   49.6    31   10.6   240     15.3    717.7 
 127    9:40   0.73   49.8    32   11.4   242     17.7    717.8 
 127    9:50   0.75   49.4    30   14.5   239     22.4    717.8 
 127   10:00   0.76   48.9    31   16.6   244     26.1    717.8 
 127   10:10   0.78   49.0    32   16.9   246     24.4    717.8 
 127   10:20   0.79   49.3    38   14.8   241     22.8    717.9 
 127   10:30   0.81   49.5    40   15.5   244     23.8    717.9 
 127   10:40   0.82   49.7    40   14.3   250     24.4    717.9 
 127   10:50   0.82   50.0    41   10.9   235     21.4    717.9 
 127   11:00   0.84   50.5    43   11.6   236     19.2    717.7 
 127   11:10   0.85   50.7    42   14.0   243     22.9    717.7 
 127   11:20   0.85   50.1    38   19.8   244     30.6    717.5 
 127   11:30   0.86   50.6    34   18.0   247     30.1    717.5 
 127   11:40   0.86   51.1    43   14.9   244     25.5    717.5 
 127   11:50   0.86   51.1    46   16.8   239     25.5    717.4 
 127   12:00   0.86   50.3    46   18.0   238     23.1    717.4 
 127   12:10   0.86   51.1    45   16.2   238     26.9    717.4 
 127   12:20   0.86   51.0    45   17.6   233     25.1    717.4 
 127   12:30   0.86   52.1    44   14.7   233     22.8    717.3 
 127   12:40   0.85   52.0    43   16.0   240     25.4    717.3 
 127   12:50   0.84   51.4    44   17.7   238     25.7    717.3 
 127   13:00   0.84   52.7    42   15.8   236     28.2    717.2 
 127   13:10   0.83   53.2    41   13.2   230     26.4    717.2 
 127   13:20   0.82   53.7    39   15.8   235     23.3    717.1 
 127   13:30   0.81   52.7    38   17.8   241     27.9    717.0 
 127   13:40   0.80   52.8    40   17.6   238     29.4    717.0 
 127   13:50   0.79   53.2    38   18.9   238     31.1    716.9 
 127   14:00   0.77   52.7    35   21.7   243     32.0    716.9 
 127   14:10   0.75   52.8    36   21.9   240     33.8    716.7 
 127   14:20   0.73   52.3    37   25.4   242     37.7    716.7 
 127   14:30   0.71   52.0    36   25.6   242     33.4    716.6 
 127   14:40   0.69   52.8    39   18.7   241     28.0    716.7 
 127   14:50   0.67   52.8    39   21.7   243     38.8    716.6 
 127   15:00   0.65   52.3    39   19.5   237     30.1    716.6 
 127   15:10   0.63   53.1    38   18.4   235     32.5    716.6 
 127   15:20   0.60   52.6    38   18.8   238     29.8    716.5 
 127   15:30   0.58   53.3    36   15.3   227     22.1    716.6 
 127   15:40   0.55   53.3    37   16.1   233     32.7    716.6 
 127   15:50   0.53   52.4    37   19.5   240     30.5    716.5 
 127   16:00   0.50   51.8    36   21.3   242     31.8    716.5 
 127   16:10   0.47   52.0    38   17.5   236     26.4    716.5 
 127   16:20   0.45   51.6    37   21.4   244     28.3    716.4 
 127   16:30   0.42   50.9    40   20.5   241     27.2    716.4 
 127   16:40   0.39   50.9    41   18.9   237     29.7    716.4 
 127   16:50   0.36   50.6    40   20.9   246     27.2    716.4 
 127   17:00   0.33   50.0    43   20.5   238     31.8    716.4 
 127   17:10   0.30   50.1    43   16.7   239     24.3    716.5 
 127   17:20   0.27   50.2    41   17.3   233     26.9    716.5 
 127   17:30   0.24   49.3    42   22.0   241     30.8    716.5 
 127   17:40   0.21   49.1    45   16.6   238     25.1    716.5 
 127   17:50   0.19   48.7    46   18.0   240     24.2    716.5 
 127   18:00   0.16   47.7    49   23.1   239     30.9    716.4 
 127   18:10   0.13   47.0    52   20.6   246     28.0    716.5 
 127   18:20   0.10   46.4    54   19.1   239     25.3    716.5 
 127   18:30   0.07   45.9    54   16.2   247     20.9    716.6 
 127   18:40   0.04   45.0    56   17.5   251     26.1    716.5 
 127   18:50   0.02   44.0    58   19.9   245     25.0    716.5 
 127   19:00   0.01   43.0    61   19.8   246     25.7    716.6 
 127   19:10   0.00   42.5    62   18.8   253     24.5    716.7 
 127   19:20   0.00   42.0    64   16.2   268     21.8    716.7 
 127   19:30   0.00   41.5    66   15.6   275     22.5    716.8 
 127   19:40   0.00   41.8    59   21.2   292     27.2    716.9 
 127   19:50   0.00   42.1    52   23.7   296     31.2    717.0 
 127   20:00   0.00   42.7    39   22.8   292     32.2    717.1 
 127   20:10   0.00   42.6    37   21.0   283     26.0    717.3 
 127   20:20   0.00   42.2    37   20.5   271     25.7    717.3 
 127   20:30   0.00   42.6    25   17.7   275     22.4    717.4 
 127   20:40   0.00   42.9    22   20.7   265     24.2    717.4 
 127   20:50   0.00   42.9    23   23.3   262     28.5    717.4 
 127   21:00   0.00   42.6    22   22.6   260     26.4    717.4 
 127   21:10   0.00   42.4    20   21.0   262     27.6    717.4 
 127   21:20   0.00   42.3    18   20.5   259     25.0    717.4 
 127   21:30   0.00   42.0    19   19.1   255     22.5    717.5 
 127   21:40   0.00   41.8    23   18.1   269     21.1    717.5 
 127   21:50   0.00   41.4    26   18.8   263     22.7    717.4 
 127   22:00   0.00   41.1    31   19.4   259     21.8    717.4 
 127   22:10   0.00   40.7    31   19.9   255     22.9    717.4 
 127   22:20   0.00   40.6    28   19.1   256     21.6    717.4 
 127   22:30   0.00   40.5    30   17.7   253     21.3    717.5 
 127   22:40   0.00   40.4    31   14.9   259     18.7    717.5 
 127   22:50   0.00   40.5    29   12.7   263     15.2    717.5 
 127   23:00   0.00   41.0    27   10.2   261     12.7    717.5 
 127   23:10   0.00   42.4    17    8.3   268      9.1    717.4 
 127   23:20   0.00   43.5    13    7.9   264      8.7    717.4 
 127   23:30   0.00   43.5    12    8.2   257      9.4    717.4 
 127   23:40   0.00   43.3    13    9.5   250     12.0    717.4 
 127   23:50   0.00   42.7    13   10.7   253     12.4    717.3 
 128    0:00   0.00   43.1    12   11.2   251     12.7    717.3 
 128    0:10   0.00   43.0    12   12.4   252     14.0    717.2 
 128    0:20   0.00   42.6    14   13.7   255     15.8    717.1 
 128    0:30   0.00   42.9    13   12.9   256     14.5    717.0 
 128    0:40   0.00   43.4    12   12.4   250     13.4    717.0 
 128    0:50   0.00   44.0    11   12.4   248     13.3    716.9 
 128    1:00   0.00   43.9    11   11.7   246     13.0    716.8 
 128    1:10   0.00   43.3    12   11.4   246     12.9    716.8 
 128    1:20   0.00   42.9    12   12.6   245     14.2    716.9 
 128    1:30   0.00   42.6    12   13.9   252     15.3    716.8 
 128    1:40   0.00   43.0    12   14.4   258     16.5    716.7 
 128    1:50   0.00   43.3    11   13.6   264     16.9    716.7 
 128    2:00   0.00   43.3    11   15.3   264     18.2    716.6 
 128    2:10   0.00   43.1    11   14.1   265     16.6    716.6 
 128    2:20   0.00   43.5    11   14.4   265     17.8    716.6 
 128    2:30   0.00   43.6    11   16.5   266     23.6    716.5 
 128    2:40   0.00   44.1    10   16.4   276     23.0    716.5 
 128    2:50   0.00   43.9    11   14.9   270     19.9    716.5 
 128    3:00   0.00   43.4    11   14.7   270     18.7    716.5 
 128    3:10   0.00   43.1    12   15.4   284     22.7    716.5 
 128    3:20   0.00   43.8    11   15.5   292     21.4    716.5 
 128    3:30   0.00   42.3    13   12.4   283     16.7    716.5 
 128    3:40   0.00   42.0    13   13.9   269     19.6    716.5 
 128    3:50   0.00   42.6    12   14.4   262     22.4    716.4 
 128    4:00   0.00   42.6    12    7.9   272     11.1    716.5 
 128    4:10   0.00   42.9    11    8.2   307     14.7    716.6 
 128    4:20   0.00   42.9    11    9.8   285     14.9    716.5 
 128    4:30   0.00   42.3    12    7.3   308     12.2    716.7 

Return to Slide Mountain graphs page.


Western Regional Climate Center,wrcc@dri.edu